sensor_id;sensor_type;location;lat;lon;timestamp;P1;durP1;ratioP1;P2;durP2;ratioP2
23561;SDS011;11959;49.418;8.728;2023-07-08T00:00:43;10.77;;;7.50;;
23561;SDS011;11959;49.418;8.728;2023-07-08T00:03:13;11.45;;;7.57;;
23561;SDS011;11959;49.418;8.728;2023-07-08T00:05:39;12.25;;;8.00;;
23561;SDS011;11959;49.418;8.728;2023-07-08T00:08:07;10.50;;;7.28;;
23561;SDS011;11959;49.418;8.728;2023-07-08T00:10:40;9.40;;;7.15;;
23561;SDS011;11959;49.418;8.728;2023-07-08T00:13:05;10.23;;;7.00;;
23561;SDS011;11959;49.418;8.728;2023-07-08T00:15:33;10.18;;;6.85;;
23561;SDS011;11959;49.418;8.728;2023-07-08T00:18:00;10.38;;;7.60;;
23561;SDS011;11959;49.418;8.728;2023-07-08T00:23:05;9.68;;;6.93;;
23561;SDS011;11959;49.418;8.728;2023-07-08T00:25:31;11.55;;;7.30;;
23561;SDS011;11959;49.418;8.728;2023-07-08T00:27:57;9.52;;;7.22;;
23561;SDS011;11959;49.418;8.728;2023-07-08T00:30:25;11.05;;;7.50;;
23561;SDS011;11959;49.418;8.728;2023-07-08T00:32:52;10.35;;;6.65;;
23561;SDS011;11959;49.418;8.728;2023-07-08T00:35:41;10.68;;;7.47;;
23561;SDS011;11959;49.418;8.728;2023-07-08T00:38:20;9.60;;;6.82;;
23561;SDS011;11959;49.418;8.728;2023-07-08T00:43:28;10.48;;;7.55;;
23561;SDS011;11959;49.418;8.728;2023-07-08T00:46:26;11.02;;;7.05;;
23561;SDS011;11959;49.418;8.728;2023-07-08T00:48:54;10.35;;;6.95;;
23561;SDS011;11959;49.418;8.728;2023-07-08T00:51:24;10.93;;;7.13;;
23561;SDS011;11959;49.418;8.728;2023-07-08T00:53:50;10.20;;;7.28;;
23561;SDS011;11959;49.418;8.728;2023-07-08T00:56:20;11.05;;;7.63;;
23561;SDS011;11959;49.418;8.728;2023-07-08T00:58:52;10.77;;;7.00;;
23561;SDS011;11959;49.418;8.728;2023-07-08T01:01:29;10.80;;;7.43;;
23561;SDS011;11959;49.418;8.728;2023-07-08T01:04:02;10.07;;;7.20;;
23561;SDS011;11959;49.418;8.728;2023-07-08T01:06:33;11.52;;;7.22;;
23561;SDS011;11959;49.418;8.728;2023-07-08T01:09:05;10.05;;;6.95;;
23561;SDS011;11959;49.418;8.728;2023-07-08T01:11:33;11.60;;;7.43;;
23561;SDS011;11959;49.418;8.728;2023-07-08T01:14:02;8.95;;;6.55;;
23561;SDS011;11959;49.418;8.728;2023-07-08T01:16:30;12.45;;;7.22;;
23561;SDS011;11959;49.418;8.728;2023-07-08T01:18:59;10.68;;;6.90;;
23561;SDS011;11959;49.418;8.728;2023-07-08T01:21:28;9.07;;;7.18;;
23561;SDS011;11959;49.418;8.728;2023-07-08T01:24:18;10.65;;;7.13;;
23561;SDS011;11959;49.418;8.728;2023-07-08T01:26:44;12.27;;;7.65;;
23561;SDS011;11959;49.418;8.728;2023-07-08T01:29:11;10.35;;;6.97;;
23561;SDS011;11959;49.418;8.728;2023-07-08T01:31:37;10.25;;;6.93;;
23561;SDS011;11959;49.418;8.728;2023-07-08T01:34:04;8.77;;;6.78;;
23561;SDS011;11959;49.418;8.728;2023-07-08T01:36:31;13.30;;;7.13;;
23561;SDS011;11959;49.418;8.728;2023-07-08T01:39:05;10.30;;;6.93;;
23561;SDS011;11959;49.418;8.728;2023-07-08T01:41:30;10.07;;;6.85;;
23561;SDS011;11959;49.418;8.728;2023-07-08T01:43:56;11.20;;;6.72;;
23561;SDS011;11959;49.418;8.728;2023-07-08T01:46:22;10.88;;;7.55;;
23561;SDS011;11959;49.418;8.728;2023-07-08T01:48:53;11.63;;;7.60;;
23561;SDS011;11959;49.418;8.728;2023-07-08T01:51:22;9.65;;;6.85;;
23561;SDS011;11959;49.418;8.728;2023-07-08T01:53:49;11.02;;;6.82;;
23561;SDS011;11959;49.418;8.728;2023-07-08T01:56:15;9.77;;;6.60;;
23561;SDS011;11959;49.418;8.728;2023-07-08T01:58:41;9.63;;;6.55;;
23561;SDS011;11959;49.418;8.728;2023-07-08T02:01:07;9.60;;;6.65;;
23561;SDS011;11959;49.418;8.728;2023-07-08T02:03:33;11.07;;;6.53;;
23561;SDS011;11959;49.418;8.728;2023-07-08T02:05:59;10.07;;;6.88;;
23561;SDS011;11959;49.418;8.728;2023-07-08T02:08:25;10.27;;;7.20;;
23561;SDS011;11959;49.418;8.728;2023-07-08T02:10:52;11.32;;;6.93;;
23561;SDS011;11959;49.418;8.728;2023-07-08T02:13:21;10.57;;;7.22;;
23561;SDS011;11959;49.418;8.728;2023-07-08T02:15:47;11.63;;;7.10;;
23561;SDS011;11959;49.418;8.728;2023-07-08T02:18:13;10.23;;;7.07;;
23561;SDS011;11959;49.418;8.728;2023-07-08T02:20:38;10.32;;;7.78;;
23561;SDS011;11959;49.418;8.728;2023-07-08T02:23:04;11.25;;;6.78;;
23561;SDS011;11959;49.418;8.728;2023-07-08T02:25:29;12.00;;;7.38;;
23561;SDS011;11959;49.418;8.728;2023-07-08T02:27:55;8.82;;;6.78;;
23561;SDS011;11959;49.418;8.728;2023-07-08T02:30:22;11.25;;;7.65;;
23561;SDS011;11959;49.418;8.728;2023-07-08T02:32:48;11.45;;;7.15;;
23561;SDS011;11959;49.418;8.728;2023-07-08T02:37:51;10.60;;;6.82;;
23561;SDS011;11959;49.418;8.728;2023-07-08T02:40:17;10.60;;;6.93;;
23561;SDS011;11959;49.418;8.728;2023-07-08T02:42:43;10.02;;;7.20;;
23561;SDS011;11959;49.418;8.728;2023-07-08T02:45:09;11.35;;;6.97;;
23561;SDS011;11959;49.418;8.728;2023-07-08T02:47:36;10.50;;;7.38;;
23561;SDS011;11959;49.418;8.728;2023-07-08T02:50:01;10.57;;;7.35;;
23561;SDS011;11959;49.418;8.728;2023-07-08T02:52:29;10.98;;;7.43;;
23561;SDS011;11959;49.418;8.728;2023-07-08T02:54:55;10.43;;;7.03;;
23561;SDS011;11959;49.418;8.728;2023-07-08T02:57:20;9.90;;;7.35;;
23561;SDS011;11959;49.418;8.728;2023-07-08T02:59:46;9.10;;;6.47;;
23561;SDS011;11959;49.418;8.728;2023-07-08T03:02:12;11.05;;;7.25;;
23561;SDS011;11959;49.418;8.728;2023-07-08T03:04:37;9.57;;;7.00;;
23561;SDS011;11959;49.418;8.728;2023-07-08T03:07:04;10.93;;;7.22;;
23561;SDS011;11959;49.418;8.728;2023-07-08T03:09:30;11.15;;;7.13;;
23561;SDS011;11959;49.418;8.728;2023-07-08T03:11:57;12.20;;;7.10;;
23561;SDS011;11959;49.418;8.728;2023-07-08T03:14:23;10.45;;;7.32;;
23561;SDS011;11959;49.418;8.728;2023-07-08T03:16:49;10.43;;;7.10;;
23561;SDS011;11959;49.418;8.728;2023-07-08T03:19:15;9.23;;;6.60;;
23561;SDS011;11959;49.418;8.728;2023-07-08T03:21:42;11.18;;;7.15;;
23561;SDS011;11959;49.418;8.728;2023-07-08T03:24:10;10.18;;;6.63;;
23561;SDS011;11959;49.418;8.728;2023-07-08T03:26:38;10.32;;;6.95;;
23561;SDS011;11959;49.418;8.728;2023-07-08T03:29:05;9.38;;;6.75;;
23561;SDS011;11959;49.418;8.728;2023-07-08T03:31:38;10.50;;;7.10;;
23561;SDS011;11959;49.418;8.728;2023-07-08T03:34:03;10.02;;;6.50;;
23561;SDS011;11959;49.418;8.728;2023-07-08T03:36:29;9.15;;;6.40;;
23561;SDS011;11959;49.418;8.728;2023-07-08T03:38:55;10.85;;;7.00;;
23561;SDS011;11959;49.418;8.728;2023-07-08T03:41:22;10.90;;;7.10;;
23561;SDS011;11959;49.418;8.728;2023-07-08T03:43:49;10.23;;;6.70;;
23561;SDS011;11959;49.418;8.728;2023-07-08T03:46:18;10.00;;;6.53;;
23561;SDS011;11959;49.418;8.728;2023-07-08T03:48:45;9.88;;;6.70;;
23561;SDS011;11959;49.418;8.728;2023-07-08T03:51:21;9.82;;;7.05;;
23561;SDS011;11959;49.418;8.728;2023-07-08T03:53:52;10.45;;;7.18;;
23561;SDS011;11959;49.418;8.728;2023-07-08T03:56:18;9.57;;;6.70;;
23561;SDS011;11959;49.418;8.728;2023-07-08T03:58:43;10.85;;;6.75;;
23561;SDS011;11959;49.418;8.728;2023-07-08T04:01:13;15.65;;;7.65;;
23561;SDS011;11959;49.418;8.728;2023-07-08T04:03:41;9.73;;;7.13;;
23561;SDS011;11959;49.418;8.728;2023-07-08T04:06:06;11.13;;;7.78;;
23561;SDS011;11959;49.418;8.728;2023-07-08T04:08:32;9.27;;;6.95;;
23561;SDS011;11959;49.418;8.728;2023-07-08T04:10:58;10.18;;;6.93;;
23561;SDS011;11959;49.418;8.728;2023-07-08T04:13:23;10.60;;;7.18;;
23561;SDS011;11959;49.418;8.728;2023-07-08T04:15:51;11.98;;;7.80;;
23561;SDS011;11959;49.418;8.728;2023-07-08T04:18:29;10.63;;;7.10;;
23561;SDS011;11959;49.418;8.728;2023-07-08T04:20:55;11.57;;;6.68;;
23561;SDS011;11959;49.418;8.728;2023-07-08T04:23:21;9.18;;;6.68;;
23561;SDS011;11959;49.418;8.728;2023-07-08T04:25:48;10.02;;;6.95;;
23561;SDS011;11959;49.418;8.728;2023-07-08T04:28:15;10.23;;;6.75;;
23561;SDS011;11959;49.418;8.728;2023-07-08T04:30:41;8.77;;;6.60;;
23561;SDS011;11959;49.418;8.728;2023-07-08T04:33:08;8.73;;;6.63;;
23561;SDS011;11959;49.418;8.728;2023-07-08T04:35:34;10.45;;;6.47;;
23561;SDS011;11959;49.418;8.728;2023-07-08T04:38:03;10.35;;;7.15;;
23561;SDS011;11959;49.418;8.728;2023-07-08T04:40:36;10.98;;;6.65;;
23561;SDS011;11959;49.418;8.728;2023-07-08T04:43:05;11.43;;;7.00;;
23561;SDS011;11959;49.418;8.728;2023-07-08T04:45:37;11.65;;;6.80;;
23561;SDS011;11959;49.418;8.728;2023-07-08T04:48:04;9.55;;;6.63;;
23561;SDS011;11959;49.418;8.728;2023-07-08T04:50:41;9.52;;;6.93;;
23561;SDS011;11959;49.418;8.728;2023-07-08T04:53:08;10.48;;;6.65;;
23561;SDS011;11959;49.418;8.728;2023-07-08T04:55:38;9.07;;;6.65;;
23561;SDS011;11959;49.418;8.728;2023-07-08T04:58:07;8.85;;;6.28;;
23561;SDS011;11959;49.418;8.728;2023-07-08T05:00:33;10.20;;;6.55;;
23561;SDS011;11959;49.418;8.728;2023-07-08T05:02:59;10.88;;;6.75;;
23561;SDS011;11959;49.418;8.728;2023-07-08T05:05:24;8.65;;;6.18;;
23561;SDS011;11959;49.418;8.728;2023-07-08T05:07:50;9.02;;;6.00;;
23561;SDS011;11959;49.418;8.728;2023-07-08T05:10:16;9.95;;;6.35;;
23561;SDS011;11959;49.418;8.728;2023-07-08T05:12:42;8.25;;;6.03;;
23561;SDS011;11959;49.418;8.728;2023-07-08T05:15:09;8.25;;;6.03;;
23561;SDS011;11959;49.418;8.728;2023-07-08T05:17:36;9.60;;;6.22;;
23561;SDS011;11959;49.418;8.728;2023-07-08T05:20:03;9.75;;;7.00;;
23561;SDS011;11959;49.418;8.728;2023-07-08T05:22:29;10.05;;;6.72;;
23561;SDS011;11959;49.418;8.728;2023-07-08T05:24:55;9.15;;;6.28;;
23561;SDS011;11959;49.418;8.728;2023-07-08T05:27:21;11.05;;;6.82;;
23561;SDS011;11959;49.418;8.728;2023-07-08T05:29:48;10.07;;;6.68;;
23561;SDS011;11959;49.418;8.728;2023-07-08T05:32:14;10.70;;;6.20;;
23561;SDS011;11959;49.418;8.728;2023-07-08T05:34:40;10.75;;;6.53;;
23561;SDS011;11959;49.418;8.728;2023-07-08T05:37:06;7.97;;;5.95;;
23561;SDS011;11959;49.418;8.728;2023-07-08T05:39:32;10.07;;;6.70;;
23561;SDS011;11959;49.418;8.728;2023-07-08T05:41:58;10.30;;;6.30;;
23561;SDS011;11959;49.418;8.728;2023-07-08T05:44:24;8.30;;;6.35;;
23561;SDS011;11959;49.418;8.728;2023-07-08T05:46:50;9.18;;;6.63;;
23561;SDS011;11959;49.418;8.728;2023-07-08T05:49:15;10.48;;;6.93;;
23561;SDS011;11959;49.418;8.728;2023-07-08T05:51:43;8.40;;;6.15;;
23561;SDS011;11959;49.418;8.728;2023-07-08T05:54:09;10.50;;;6.63;;
23561;SDS011;11959;49.418;8.728;2023-07-08T05:56:35;7.82;;;6.28;;
23561;SDS011;11959;49.418;8.728;2023-07-08T05:59:01;7.85;;;5.82;;
23561;SDS011;11959;49.418;8.728;2023-07-08T06:01:26;9.43;;;7.05;;
23561;SDS011;11959;49.418;8.728;2023-07-08T06:03:52;9.95;;;6.78;;
23561;SDS011;11959;49.418;8.728;2023-07-08T06:06:18;10.20;;;7.35;;
23561;SDS011;11959;49.418;8.728;2023-07-08T06:08:43;9.52;;;6.97;;
23561;SDS011;11959;49.418;8.728;2023-07-08T06:11:09;10.80;;;6.63;;
23561;SDS011;11959;49.418;8.728;2023-07-08T06:13:35;9.05;;;6.53;;
23561;SDS011;11959;49.418;8.728;2023-07-08T06:16:00;9.02;;;6.57;;
23561;SDS011;11959;49.418;8.728;2023-07-08T06:18:26;9.23;;;6.20;;
23561;SDS011;11959;49.418;8.728;2023-07-08T06:20:54;9.60;;;6.90;;
23561;SDS011;11959;49.418;8.728;2023-07-08T06:23:22;8.13;;;6.05;;
23561;SDS011;11959;49.418;8.728;2023-07-08T06:25:48;9.55;;;6.70;;
23561;SDS011;11959;49.418;8.728;2023-07-08T06:28:14;9.75;;;6.57;;
23561;SDS011;11959;49.418;8.728;2023-07-08T06:30:39;9.30;;;6.28;;
23561;SDS011;11959;49.418;8.728;2023-07-08T06:33:05;11.10;;;6.82;;
23561;SDS011;11959;49.418;8.728;2023-07-08T06:35:31;10.95;;;6.88;;
23561;SDS011;11959;49.418;8.728;2023-07-08T06:37:56;12.20;;;7.00;;
23561;SDS011;11959;49.418;8.728;2023-07-08T06:40:22;12.95;;;6.32;;
23561;SDS011;11959;49.418;8.728;2023-07-08T06:42:48;12.77;;;6.97;;
23561;SDS011;11959;49.418;8.728;2023-07-08T06:45:14;11.77;;;7.47;;
23561;SDS011;11959;49.418;8.728;2023-07-08T06:47:40;9.95;;;6.82;;
23561;SDS011;11959;49.418;8.728;2023-07-08T06:50:05;10.00;;;6.72;;
23561;SDS011;11959;49.418;8.728;2023-07-08T06:52:32;9.98;;;6.30;;
23561;SDS011;11959;49.418;8.728;2023-07-08T06:55:00;9.27;;;5.85;;
23561;SDS011;11959;49.418;8.728;2023-07-08T06:57:27;8.85;;;6.32;;
23561;SDS011;11959;49.418;8.728;2023-07-08T06:59:52;9.27;;;6.15;;
23561;SDS011;11959;49.418;8.728;2023-07-08T07:02:18;9.82;;;6.10;;
23561;SDS011;11959;49.418;8.728;2023-07-08T07:04:46;9.52;;;6.07;;
23561;SDS011;11959;49.418;8.728;2023-07-08T07:07:11;11.75;;;7.10;;
23561;SDS011;11959;49.418;8.728;2023-07-08T07:09:37;10.35;;;6.78;;
23561;SDS011;11959;49.418;8.728;2023-07-08T07:12:05;10.15;;;6.90;;
23561;SDS011;11959;49.418;8.728;2023-07-08T07:14:31;9.93;;;6.25;;
23561;SDS011;11959;49.418;8.728;2023-07-08T07:16:57;9.10;;;6.20;;
23561;SDS011;11959;49.418;8.728;2023-07-08T07:19:23;8.80;;;6.10;;
23561;SDS011;11959;49.418;8.728;2023-07-08T07:21:48;8.50;;;6.30;;
23561;SDS011;11959;49.418;8.728;2023-07-08T07:24:14;8.70;;;6.32;;
23561;SDS011;11959;49.418;8.728;2023-07-08T07:26:40;9.38;;;5.95;;
23561;SDS011;11959;49.418;8.728;2023-07-08T07:29:05;9.25;;;6.25;;
23561;SDS011;11959;49.418;8.728;2023-07-08T07:31:31;9.30;;;6.40;;
23561;SDS011;11959;49.418;8.728;2023-07-08T07:33:58;9.88;;;6.55;;
23561;SDS011;11959;49.418;8.728;2023-07-08T07:36:25;10.18;;;6.22;;
23561;SDS011;11959;49.418;8.728;2023-07-08T07:38:51;9.13;;;6.80;;
23561;SDS011;11959;49.418;8.728;2023-07-08T07:41:16;9.75;;;6.20;;
23561;SDS011;11959;49.418;8.728;2023-07-08T07:43:42;9.00;;;6.07;;
23561;SDS011;11959;49.418;8.728;2023-07-08T07:46:08;8.05;;;5.70;;
23561;SDS011;11959;49.418;8.728;2023-07-08T07:48:35;10.27;;;6.63;;
23561;SDS011;11959;49.418;8.728;2023-07-08T07:51:01;7.72;;;5.93;;
23561;SDS011;11959;49.418;8.728;2023-07-08T07:53:27;9.73;;;5.18;;
23561;SDS011;11959;49.418;8.728;2023-07-08T07:56:00;10.35;;;5.80;;
23561;SDS011;11959;49.418;8.728;2023-07-08T07:58:27;9.50;;;4.45;;
23561;SDS011;11959;49.418;8.728;2023-07-08T08:00:53;7.85;;;4.55;;
23561;SDS011;11959;49.418;8.728;2023-07-08T08:03:19;6.60;;;4.38;;
23561;SDS011;11959;49.418;8.728;2023-07-08T08:05:45;7.78;;;4.38;;
23561;SDS011;11959;49.418;8.728;2023-07-08T08:08:11;7.60;;;4.20;;
23561;SDS011;11959;49.418;8.728;2023-07-08T08:10:37;6.07;;;3.90;;
23561;SDS011;11959;49.418;8.728;2023-07-08T08:13:03;5.82;;;3.83;;
23561;SDS011;11959;49.418;8.728;2023-07-08T08:15:29;7.38;;;4.18;;
23561;SDS011;11959;49.418;8.728;2023-07-08T08:17:55;7.72;;;4.20;;
23561;SDS011;11959;49.418;8.728;2023-07-08T08:20:24;5.57;;;3.55;;
23561;SDS011;11959;49.418;8.728;2023-07-08T08:22:50;5.20;;;3.25;;
23561;SDS011;11959;49.418;8.728;2023-07-08T08:25:17;6.30;;;3.55;;
23561;SDS011;11959;49.418;8.728;2023-07-08T08:27:44;6.22;;;2.97;;
23561;SDS011;11959;49.418;8.728;2023-07-08T08:30:10;5.57;;;2.97;;
23561;SDS011;11959;49.418;8.728;2023-07-08T08:32:36;6.43;;;3.90;;
23561;SDS011;11959;49.418;8.728;2023-07-08T08:35:02;5.20;;;2.60;;
23561;SDS011;11959;49.418;8.728;2023-07-08T08:37:28;4.35;;;3.40;;
23561;SDS011;11959;49.418;8.728;2023-07-08T08:39:53;5.60;;;2.80;;
23561;SDS011;11959;49.418;8.728;2023-07-08T08:42:39;4.82;;;2.95;;
23561;SDS011;11959;49.418;8.728;2023-07-08T08:45:07;5.45;;;2.80;;
23561;SDS011;11959;49.418;8.728;2023-07-08T08:47:39;4.72;;;2.90;;
23561;SDS011;11959;49.418;8.728;2023-07-08T08:52:45;6.32;;;2.83;;
23561;SDS011;11959;49.418;8.728;2023-07-08T08:55:11;8.30;;;3.10;;
23561;SDS011;11959;49.418;8.728;2023-07-08T08:57:43;5.88;;;3.00;;
23561;SDS011;11959;49.418;8.728;2023-07-08T09:00:19;4.60;;;2.75;;
23561;SDS011;11959;49.418;8.728;2023-07-08T09:03:07;5.43;;;2.63;;
23561;SDS011;11959;49.418;8.728;2023-07-08T09:05:34;6.83;;;2.80;;
23561;SDS011;11959;49.418;8.728;2023-07-08T09:10:56;6.53;;;3.00;;
23561;SDS011;11959;49.418;8.728;2023-07-08T09:13:35;5.65;;;2.90;;
23561;SDS011;11959;49.418;8.728;2023-07-08T09:16:44;6.80;;;2.97;;
23561;SDS011;11959;49.418;8.728;2023-07-08T09:21:21;5.20;;;2.75;;
23561;SDS011;11959;49.418;8.728;2023-07-08T09:23:52;5.53;;;2.83;;
23561;SDS011;11959;49.418;8.728;2023-07-08T09:26:25;4.25;;;2.90;;
23561;SDS011;11959;49.418;8.728;2023-07-08T09:28:53;9.05;;;3.30;;
23561;SDS011;11959;49.418;8.728;2023-07-08T09:34:06;4.50;;;3.08;;
23561;SDS011;11959;49.418;8.728;2023-07-08T09:36:38;6.35;;;2.80;;
23561;SDS011;11959;49.418;8.728;2023-07-08T09:39:08;4.68;;;2.80;;
23561;SDS011;11959;49.418;8.728;2023-07-08T09:41:39;4.90;;;3.00;;
23561;SDS011;11959;49.418;8.728;2023-07-08T09:44:13;5.05;;;2.45;;
23561;SDS011;11959;49.418;8.728;2023-07-08T09:46:39;6.18;;;3.28;;
23561;SDS011;11959;49.418;8.728;2023-07-08T09:49:09;4.68;;;3.00;;
23561;SDS011;11959;49.418;8.728;2023-07-08T09:51:49;7.20;;;3.33;;
23561;SDS011;11959;49.418;8.728;2023-07-08T09:54:17;6.38;;;3.15;;
23561;SDS011;11959;49.418;8.728;2023-07-08T09:56:47;6.55;;;3.58;;
23561;SDS011;11959;49.418;8.728;2023-07-08T09:59:21;6.57;;;3.30;;
23561;SDS011;11959;49.418;8.728;2023-07-08T10:01:50;6.05;;;3.20;;
23561;SDS011;11959;49.418;8.728;2023-07-08T10:04:17;9.57;;;3.50;;
23561;SDS011;11959;49.418;8.728;2023-07-08T10:06:44;7.35;;;3.58;;
23561;SDS011;11959;49.418;8.728;2023-07-08T10:09:18;6.03;;;3.58;;
23561;SDS011;11959;49.418;8.728;2023-07-08T10:11:47;7.30;;;3.38;;
23561;SDS011;11959;49.418;8.728;2023-07-08T10:16:48;6.50;;;3.80;;
23561;SDS011;11959;49.418;8.728;2023-07-08T10:19:15;8.07;;;4.28;;
23561;SDS011;11959;49.418;8.728;2023-07-08T10:35:42;8.30;;;4.33;;
23561;SDS011;11959;49.418;8.728;2023-07-08T10:38:33;6.32;;;4.18;;
23561;SDS011;11959;49.418;8.728;2023-07-08T10:41:12;6.60;;;4.72;;
23561;SDS011;11959;49.418;8.728;2023-07-08T10:44:01;6.90;;;4.03;;
23561;SDS011;11959;49.418;8.728;2023-07-08T10:46:46;8.73;;;4.40;;
23561;SDS011;11959;49.418;8.728;2023-07-08T10:49:57;7.47;;;4.47;;
23561;SDS011;11959;49.418;8.728;2023-07-08T10:55:38;7.43;;;4.35;;
23561;SDS011;11959;49.418;8.728;2023-07-08T11:01:15;6.65;;;4.00;;
23561;SDS011;11959;49.418;8.728;2023-07-08T11:06:21;6.70;;;4.20;;
23561;SDS011;11959;49.418;8.728;2023-07-08T11:09:11;7.57;;;4.55;;
23561;SDS011;11959;49.418;8.728;2023-07-08T11:14:33;9.57;;;4.35;;
23561;SDS011;11959;49.418;8.728;2023-07-08T11:17:33;7.63;;;4.45;;
23561;SDS011;11959;49.418;8.728;2023-07-08T11:20:18;6.63;;;4.65;;
23561;SDS011;11959;49.418;8.728;2023-07-08T11:22:59;6.75;;;4.53;;
23561;SDS011;11959;49.418;8.728;2023-07-08T11:25:50;6.00;;;4.32;;
23561;SDS011;11959;49.418;8.728;2023-07-08T11:28:20;6.72;;;4.05;;
23561;SDS011;11959;49.418;8.728;2023-07-08T11:30:49;9.02;;;4.63;;
23561;SDS011;11959;49.418;8.728;2023-07-08T11:33:17;6.47;;;4.38;;
23561;SDS011;11959;49.418;8.728;2023-07-08T11:35:48;7.30;;;4.57;;
23561;SDS011;11959;49.418;8.728;2023-07-08T11:38:17;7.35;;;4.32;;
23561;SDS011;11959;49.418;8.728;2023-07-08T11:40:58;6.22;;;4.75;;
23561;SDS011;11959;49.418;8.728;2023-07-08T11:44:04;7.20;;;4.05;;
23561;SDS011;11959;49.418;8.728;2023-07-08T11:46:26;6.88;;;4.57;;
23561;SDS011;11959;49.418;8.728;2023-07-08T11:48:56;8.18;;;4.72;;
23561;SDS011;11959;49.418;8.728;2023-07-08T11:51:28;6.07;;;4.23;;
23561;SDS011;11959;49.418;8.728;2023-07-08T11:57:14;7.85;;;4.05;;
23561;SDS011;11959;49.418;8.728;2023-07-08T11:59:44;6.80;;;4.10;;
23561;SDS011;11959;49.418;8.728;2023-07-08T12:02:12;8.85;;;4.70;;
23561;SDS011;11959;49.418;8.728;2023-07-08T12:07:31;8.18;;;4.47;;
23561;SDS011;11959;49.418;8.728;2023-07-08T12:10:08;7.47;;;4.57;;
23561;SDS011;11959;49.418;8.728;2023-07-08T12:12:41;7.70;;;4.57;;
23561;SDS011;11959;49.418;8.728;2023-07-08T12:15:14;5.93;;;4.55;;
23561;SDS011;11959;49.418;8.728;2023-07-08T12:17:40;7.47;;;4.47;;
23561;SDS011;11959;49.418;8.728;2023-07-08T12:20:29;7.50;;;4.50;;
23561;SDS011;11959;49.418;8.728;2023-07-08T12:22:59;6.82;;;4.35;;
23561;SDS011;11959;49.418;8.728;2023-07-08T12:25:32;6.53;;;4.57;;
23561;SDS011;11959;49.418;8.728;2023-07-08T12:28:01;8.77;;;4.30;;
23561;SDS011;11959;49.418;8.728;2023-07-08T12:30:28;7.15;;;4.53;;
23561;SDS011;11959;49.418;8.728;2023-07-08T12:32:55;9.73;;;5.03;;
23561;SDS011;11959;49.418;8.728;2023-07-08T12:35:26;9.45;;;4.55;;
23561;SDS011;11959;49.418;8.728;2023-07-08T12:38:05;6.35;;;4.20;;
23561;SDS011;11959;49.418;8.728;2023-07-08T12:40:41;9.32;;;4.30;;
23561;SDS011;11959;49.418;8.728;2023-07-08T12:43:10;9.07;;;4.43;;
23561;SDS011;11959;49.418;8.728;2023-07-08T12:45:37;7.22;;;4.57;;
23561;SDS011;11959;49.418;8.728;2023-07-08T12:48:02;7.35;;;4.20;;
23561;SDS011;11959;49.418;8.728;2023-07-08T12:50:28;6.20;;;4.40;;
23561;SDS011;11959;49.418;8.728;2023-07-08T12:52:54;8.77;;;4.30;;
23561;SDS011;11959;49.418;8.728;2023-07-08T12:55:21;5.32;;;4.05;;
23561;SDS011;11959;49.418;8.728;2023-07-08T12:57:49;8.43;;;4.38;;
23561;SDS011;11959;49.418;8.728;2023-07-08T13:00:27;7.32;;;4.70;;
23561;SDS011;11959;49.418;8.728;2023-07-08T13:03:05;6.38;;;4.40;;
23561;SDS011;11959;49.418;8.728;2023-07-08T13:05:43;7.63;;;4.40;;
23561;SDS011;11959;49.418;8.728;2023-07-08T13:08:10;7.55;;;4.43;;
23561;SDS011;11959;49.418;8.728;2023-07-08T13:10:40;5.75;;;4.05;;
23561;SDS011;11959;49.418;8.728;2023-07-08T13:13:20;6.57;;;4.28;;
23561;SDS011;11959;49.418;8.728;2023-07-08T13:15:48;7.25;;;4.28;;
23561;SDS011;11959;49.418;8.728;2023-07-08T13:18:31;6.30;;;4.45;;
23561;SDS011;11959;49.418;8.728;2023-07-08T13:20:57;5.75;;;4.18;;
23561;SDS011;11959;49.418;8.728;2023-07-08T13:23:24;5.97;;;4.38;;
23561;SDS011;11959;49.418;8.728;2023-07-08T13:25:52;6.93;;;4.10;;
23561;SDS011;11959;49.418;8.728;2023-07-08T13:30:51;7.28;;;4.68;;
23561;SDS011;11959;49.418;8.728;2023-07-08T13:33:29;5.25;;;3.83;;
23561;SDS011;11959;49.418;8.728;2023-07-08T13:35:56;7.43;;;4.30;;
23561;SDS011;11959;49.418;8.728;2023-07-08T13:38:24;6.50;;;4.10;;
23561;SDS011;11959;49.418;8.728;2023-07-08T13:40:56;6.38;;;4.25;;
23561;SDS011;11959;49.418;8.728;2023-07-08T13:43:28;8.95;;;4.40;;
23561;SDS011;11959;49.418;8.728;2023-07-08T13:45:56;7.93;;;4.70;;
23561;SDS011;11959;49.418;8.728;2023-07-08T13:48:24;9.20;;;4.13;;
23561;SDS011;11959;49.418;8.728;2023-07-08T13:53:42;6.05;;;3.80;;
23561;SDS011;11959;49.418;8.728;2023-07-08T13:56:15;7.05;;;4.05;;
23561;SDS011;11959;49.418;8.728;2023-07-08T13:58:45;5.28;;;3.63;;
23561;SDS011;11959;49.418;8.728;2023-07-08T14:01:23;7.63;;;3.55;;
23561;SDS011;11959;49.418;8.728;2023-07-08T14:03:51;4.97;;;3.70;;
23561;SDS011;11959;49.418;8.728;2023-07-08T14:06:19;6.85;;;3.63;;
23561;SDS011;11959;49.418;8.728;2023-07-08T14:08:47;7.57;;;3.65;;
23561;SDS011;11959;49.418;8.728;2023-07-08T14:11:13;7.18;;;3.45;;
23561;SDS011;11959;49.418;8.728;2023-07-08T14:13:39;4.80;;;3.53;;
23561;SDS011;11959;49.418;8.728;2023-07-08T14:16:08;5.22;;;3.78;;
23561;SDS011;11959;49.418;8.728;2023-07-08T14:18:50;6.85;;;3.88;;
23561;SDS011;11959;49.418;8.728;2023-07-08T14:21:17;7.57;;;3.63;;
23561;SDS011;11959;49.418;8.728;2023-07-08T14:23:43;5.05;;;3.28;;
23561;SDS011;11959;49.418;8.728;2023-07-08T14:26:10;7.32;;;3.53;;
23561;SDS011;11959;49.418;8.728;2023-07-08T14:28:36;6.60;;;3.35;;
23561;SDS011;11959;49.418;8.728;2023-07-08T14:31:02;5.38;;;3.20;;
23561;SDS011;11959;49.418;8.728;2023-07-08T14:33:27;5.63;;;3.42;;
23561;SDS011;11959;49.418;8.728;2023-07-08T14:35:53;5.57;;;3.35;;
23561;SDS011;11959;49.418;8.728;2023-07-08T14:38:19;6.88;;;3.15;;
23561;SDS011;11959;49.418;8.728;2023-07-08T14:40:44;6.47;;;3.72;;
23561;SDS011;11959;49.418;8.728;2023-07-08T14:43:12;4.93;;;3.25;;
23561;SDS011;11959;49.418;8.728;2023-07-08T14:45:53;5.78;;;3.28;;
23561;SDS011;11959;49.418;8.728;2023-07-08T14:48:21;5.43;;;3.33;;
23561;SDS011;11959;49.418;8.728;2023-07-08T14:50:47;3.72;;;2.97;;
23561;SDS011;11959;49.418;8.728;2023-07-08T14:53:13;4.40;;;2.90;;
23561;SDS011;11959;49.418;8.728;2023-07-08T14:55:40;6.85;;;3.03;;
23561;SDS011;11959;49.418;8.728;2023-07-08T14:58:08;5.28;;;2.95;;
23561;SDS011;11959;49.418;8.728;2023-07-08T15:00:42;6.57;;;3.20;;
23561;SDS011;11959;49.418;8.728;2023-07-08T15:03:07;5.90;;;3.10;;
23561;SDS011;11959;49.418;8.728;2023-07-08T15:05:33;5.10;;;2.97;;
23561;SDS011;11959;49.418;8.728;2023-07-08T15:07:59;4.28;;;2.50;;
23561;SDS011;11959;49.418;8.728;2023-07-08T15:10:28;4.80;;;2.72;;
23561;SDS011;11959;49.418;8.728;2023-07-08T15:12:55;6.93;;;2.90;;
23561;SDS011;11959;49.418;8.728;2023-07-08T15:17:59;3.85;;;2.83;;
23561;SDS011;11959;49.418;8.728;2023-07-08T15:20:27;3.92;;;2.75;;
23561;SDS011;11959;49.418;8.728;2023-07-08T15:22:53;4.68;;;2.83;;
23561;SDS011;11959;49.418;8.728;2023-07-08T15:25:19;4.68;;;2.97;;
23561;SDS011;11959;49.418;8.728;2023-07-08T15:27:46;5.22;;;2.65;;
23561;SDS011;11959;49.418;8.728;2023-07-08T15:30:22;5.80;;;2.92;;
23561;SDS011;11959;49.418;8.728;2023-07-08T15:32:50;4.95;;;2.83;;
23561;SDS011;11959;49.418;8.728;2023-07-08T15:35:18;4.30;;;2.55;;
23561;SDS011;11959;49.418;8.728;2023-07-08T15:37:45;4.47;;;2.80;;
23561;SDS011;11959;49.418;8.728;2023-07-08T15:40:12;3.70;;;2.45;;
23561;SDS011;11959;49.418;8.728;2023-07-08T15:42:40;4.72;;;2.70;;
23561;SDS011;11959;49.418;8.728;2023-07-08T15:45:11;4.88;;;3.13;;
23561;SDS011;11959;49.418;8.728;2023-07-08T15:47:39;4.40;;;2.88;;
23561;SDS011;11959;49.418;8.728;2023-07-08T15:50:09;5.60;;;2.92;;
23561;SDS011;11959;49.418;8.728;2023-07-08T15:52:36;4.53;;;3.00;;
23561;SDS011;11959;49.418;8.728;2023-07-08T15:55:02;5.00;;;2.60;;